Time;durP1;ratioP1;P1;durP2;ratioP2;P2;SDS_P1;SDS_P2;PMS_P1;PMS_P2;Temp;Humidity;BMP_temperature;BMP_pressure;BME280_temperature;BME280_humidity;BME280_pressure;Samples;Min_cycle;Max_cycle;Signal;HPM_P1;HPM_P2
2022/11/24 00:01:11;;;;;;;39.23;14.68;;;;;;;-1.67;89.69;99690.03;1751195;81;25693;-63
2022/11/24 00:03:39;;;;;;;37.33;15.30;;;;;;;-1.68;89.78;99685.80;1741981;81;25812;-63
2022/11/24 00:06:09;;;;;;;34.43;13.85;;;;;;;-1.67;89.97;99684.20;1742823;81;27388;-63
2022/11/24 00:08:40;;;;;;;43.17;16.23;;;;;;;-1.65;90.04;99688.75;1740855;81;25812;-63
2022/11/24 00:11:12;;;;;;;41.23;15.55;;;;;;;-1.63;90.08;99695.15;1749384;80;25845;-63
2022/11/24 00:13:39;;;;;;;43.65;15.63;;;;;;;-1.61;90.10;99695.17;1714515;82;26473;-63
2022/11/24 00:16:13;;;;;;;37.83;14.60;;;;;;;-1.61;90.10;99683.77;1719355;81;25794;-63
2022/11/24 00:18:46;;;;;;;34.83;14.95;;;;;;;-1.60;90.11;99684.85;1706859;81;27385;-63
2022/11/24 00:21:16;;;;;;;39.67;14.03;;;;;;;-1.58;90.10;99682.75;1715947;82;25925;-63
2022/11/24 00:23:44;;;;;;;38.63;15.45;;;;;;;-1.56;90.13;99687.82;1710531;83;25421;-63
2022/11/24 00:26:19;;;;;;;38.13;15.05;;;;;;;-1.55;90.10;99692.06;1709044;81;25792;-63
2022/11/24 00:28:50;;;;;;;34.60;13.75;;;;;;;-1.54;90.11;99690.49;1719327;81;25472;-63
2022/11/24 00:31:31;;;;;;;40.73;14.58;;;;;;;-1.51;90.04;99687.89;1728638;81;27314;-63
2022/11/24 00:34:03;;;;;;;37.90;15.53;;;;;;;-1.50;90.09;99689.48;1716231;81;25560;-63
2022/11/24 00:36:33;;;;;;;45.43;15.78;;;;;;;-1.49;90.11;99697.73;1704867;81;25601;-62
2022/11/24 00:39:05;;;;;;;40.70;16.05;;;;;;;-1.48;90.00;99696.69;1711100;82;25642;-64
2022/11/24 00:41:31;;;;;;;45.33;16.25;;;;;;;-1.47;90.00;99696.95;1740534;81;25792;-64
2022/11/24 00:44:00;;;;;;;44.50;15.15;;;;;;;-1.46;89.98;99696.42;1745046;81;27466;-63
2022/11/24 00:46:28;;;;;;;35.58;15.08;;;;;;;-1.45;90.02;99690.88;1748077;81;25496;-63
2022/11/24 00:48:56;;;;;;;42.80;15.75;;;;;;;-1.44;90.03;99691.17;1748867;81;25891;-63
2022/11/24 00:51:29;;;;;;;43.92;17.27;;;;;;;-1.42;89.97;99683.77;1748975;81;25730;-63
2022/11/24 00:53:58;;;;;;;45.35;16.77;;;;;;;-1.42;89.86;99682.97;1748582;81;25785;-64
2022/11/24 00:56:28;;;;;;;31.55;13.20;;;;;;;-1.44;89.86;99673.13;1748950;81;27909;-63
2022/11/24 00:58:55;;;;;;;42.30;16.80;;;;;;;-1.44;89.78;99685.07;1749728;81;25722;-63
2022/11/24 01:01:26;;;;;;;45.48;16.02;;;;;;;-1.45;89.79;99685.57;1746394;81;25483;-63
2022/11/24 01:03:54;;;;;;;45.45;17.42;;;;;;;-1.45;89.79;99686.10;1747019;81;27173;-63
2022/11/24 01:06:25;;;;;;;41.73;16.17;;;;;;;-1.45;89.81;99687.43;1748635;81;25807;-63
2022/11/24 01:08:56;;;;;;;46.98;18.12;;;;;;;-1.46;89.74;99685.31;1750488;81;28367;-63
2022/11/24 01:11:28;;;;;;;45.38;16.37;;;;;;;-1.46;89.79;99689.79;1747482;81;25786;-63
2022/11/24 01:13:59;;;;;;;49.03;17.25;;;;;;;-1.47;89.87;99686.34;1748549;81;25807;-63
2022/11/24 01:16:30;;;;;;;41.85;17.15;;;;;;;-1.46;89.85;99689.28;1736409;80;25627;-63
2022/11/24 01:18:59;;;;;;;43.48;17.80;;;;;;;-1.45;89.93;99684.78;1748205;81;25866;-63
2022/11/24 01:21:26;;;;;;;48.00;16.85;;;;;;;-1.44;89.96;99692.50;1746383;81;27933;-63
2022/11/24 01:23:53;;;;;;;39.55;15.18;;;;;;;-1.44;89.92;99688.52;1747553;81;25408;-63
2022/11/24 01:26:22;;;;;;;42.45;15.20;;;;;;;-1.42;89.93;99684.30;1723707;81;25807;-63
2022/11/24 01:28:55;;;;;;;37.70;15.68;;;;;;;-1.42;89.93;99688.27;1721110;81;25719;-63
2022/11/24 01:31:24;;;;;;;36.83;14.98;;;;;;;-1.42;89.89;99684.30;1735002;80;25938;-63
2022/11/24 01:33:52;;;;;;;40.28;15.38;;;;;;;-1.44;89.83;99690.38;1749494;80;27391;-63
2022/11/24 01:36:22;;;;;;;34.23;14.47;;;;;;;-1.43;89.87;99690.63;1747775;80;25465;-63
2022/11/24 01:38:50;;;;;;;42.73;14.53;;;;;;;-1.45;89.84;99688.22;1739199;81;25437;-63
2022/11/24 01:41:22;;;;;;;33.70;14.18;;;;;;;-1.46;89.79;99687.96;1745983;81;25719;-63
2022/11/24 01:43:52;;;;;;;31.35;13.78;;;;;;;-1.46;89.79;99687.96;1713327;81;25796;-63
2022/11/24 01:46:36;;;;;;;30.37;12.90;;;;;;;-1.47;89.71;99690.86;1736911;81;27318;-63
2022/11/24 01:49:29;;;;;;;31.93;12.45;;;;;;;-1.48;89.83;99691.89;1719029;81;25862;-63
2022/11/24 01:52:22;;;;;;;26.68;11.28;;;;;;;-1.48;89.92;99690.06;1723382;81;25461;-62
2022/11/24 01:54:55;;;;;;;29.55;11.83;;;;;;;-1.50;89.87;99686.83;1752864;81;25993;-62
2022/11/24 01:57:32;;;;;;;25.55;11.68;;;;;;;-1.49;89.95;99694.28;1742807;81;25441;-62
2022/11/24 02:00:07;;;;;;;29.92;12.95;;;;;;;-1.49;90.06;99683.14;1745461;81;27320;-63
2022/11/24 02:02:36;;;;;;;33.85;13.35;;;;;;;-1.48;90.12;99692.72;1744074;81;25742;-63
2022/11/24 02:05:09;;;;;;;29.90;12.30;;;;;;;-1.48;90.04;99690.56;1745829;81;25855;-61
2022/11/24 02:07:37;;;;;;;28.67;11.22;;;;;;;-1.51;89.88;99691.34;1738037;81;25724;-61
2022/11/24 02:10:13;;;;;;;29.98;11.93;;;;;;;-1.51;89.92;99695.85;1746338;81;25907;-61
2022/11/24 02:12:44;;;;;;;27.60;12.40;;;;;;;-1.51;90.05;99697.17;1719163;81;27404;-61
2022/11/24 02:15:16;;;;;;;26.17;11.03;;;;;;;-1.50;90.20;99693.45;1708789;81;25832;-61
2022/11/24 02:17:43;;;;;;;26.60;12.20;;;;;;;-1.49;90.21;99690.30;1712213;81;25628;-61
2022/11/24 02:20:12;;;;;;;25.82;11.00;;;;;;;-1.49;90.22;99687.12;1731238;81;25801;-61
2022/11/24 02:23:08;;;;;;;26.60;11.70;;;;;;;-1.48;90.23;99684.75;1719811;81;25897;-60
2022/11/24 02:25:46;;;;;;;30.08;12.10;;;;;;;-1.46;90.19;99687.14;1716414;81;27313;-61
2022/11/24 02:28:18;;;;;;;25.90;11.33;;;;;;;-1.45;90.28;99688.75;1659922;84;25865;-60
2022/11/24 02:30:46;;;;;;;28.12;11.85;;;;;;;-1.44;90.29;99692.50;1675667;84;25810;-60
2022/11/24 02:33:14;;;;;;;29.20;12.47;;;;;;;-1.44;90.25;99682.41;1689884;83;25955;-61
2022/11/24 02:35:42;;;;;;;26.77;11.63;;;;;;;-1.44;90.22;99687.19;1663718;84;25506;-61
2022/11/24 02:38:13;;;;;;;30.85;13.20;;;;;;;-1.43;90.26;99677.38;1660418;85;27537;-61
2022/11/24 02:40:45;;;;;;;23.62;11.28;;;;;;;-1.41;90.23;99677.95;1660908;85;25610;-61
2022/11/24 02:43:18;;;;;;;29.60;12.75;;;;;;;-1.41;90.25;99678.75;1728094;80;25865;-62
2022/11/24 02:45:44;;;;;;;28.42;12.63;;;;;;;-1.40;90.29;99676.89;1722864;81;25650;-61
2022/11/24 02:48:15;;;;;;;29.23;11.85;;;;;;;-1.39;90.24;99678.51;1721715;81;25476;-61
2022/11/24 02:50:41;;;;;;;27.67;11.57;;;;;;;-1.39;90.22;99674.53;1718669;81;27216;-61
2022/11/24 02:53:07;;;;;;;28.35;11.70;;;;;;;-1.41;90.15;99678.75;1723839;81;25786;-61
2022/11/24 02:55:34;;;;;;;27.07;11.70;;;;;;;-1.41;90.18;99676.09;1727686;81;25449;-61
2022/11/24 02:58:00;;;;;;;25.37;10.85;;;;;;;-1.40;90.19;99678.21;1724323;81;25888;-61
2022/11/24 03:00:28;;;;;;;31.05;11.97;;;;;;;-1.39;90.28;99677.97;1738493;81;25927;-61
2022/11/24 03:02:54;;;;;;;23.98;11.30;;;;;;;-1.37;90.32;99683.04;1724750;81;27379;-61
2022/11/24 03:05:20;;;;;;;23.20;10.90;;;;;;;-1.38;90.27;99678.77;1711985;81;25891;-61
2022/11/24 03:07:47;;;;;;;32.55;12.10;;;;;;;-1.38;90.23;99678.27;1738340;81;25750;-61
2022/11/24 03:10:13;;;;;;;27.10;10.93;;;;;;;-1.38;90.22;99682.75;1720145;81;25793;-61
2022/11/24 03:12:39;;;;;;;25.75;11.55;;;;;;;-1.37;90.24;99675.08;1724485;81;25437;-61
2022/11/24 03:15:10;;;;;;;23.57;11.40;;;;;;;-1.38;90.21;99676.94;1751700;80;27321;-61
2022/11/24 03:17:36;;;;;;;25.52;10.98;;;;;;;-1.37;90.20;99681.17;1749837;81;25593;-61
2022/11/24 03:20:05;;;;;;;32.60;11.93;;;;;;;-1.37;90.19;99683.04;1743476;81;25584;-61
2022/11/24 03:22:31;;;;;;;26.57;11.43;;;;;;;-1.37;90.20;99677.73;1747152;81;25759;-61
2022/11/24 03:24:58;;;;;;;22.50;10.03;;;;;;;-1.38;90.14;99672.13;1745573;81;25769;-61
2022/11/24 03:27:27;;;;;;;25.68;10.55;;;;;;;-1.44;90.07;99661.98;1743069;81;27409;-61
2022/11/24 03:29:53;;;;;;;27.37;11.80;;;;;;;-1.41;90.04;99681.41;1749540;81;25595;-60
2022/11/24 03:32:19;;;;;;;22.73;10.93;;;;;;;-1.41;90.11;99685.38;1743404;81;25670;-61
2022/11/24 03:34:46;;;;;;;29.75;11.75;;;;;;;-1.40;90.19;99686.97;1746421;81;25694;-61
2022/11/24 03:37:12;;;;;;;29.35;10.93;;;;;;;-1.39;90.26;99679.83;1745223;81;25562;-60
2022/11/24 03:39:39;;;;;;;31.07;13.08;;;;;;;-1.39;90.26;99684.61;1742132;81;29536;-60
2022/11/24 03:42:05;;;;;;;30.37;13.98;;;;;;;-1.37;90.18;99685.69;1743706;81;27269;-61
2022/11/24 03:44:32;;;;;;;26.82;10.78;;;;;;;-1.37;90.17;99683.04;1743094;81;25745;-61
2022/11/24 03:46:58;;;;;;;30.12;12.73;;;;;;;-1.37;90.09;99681.71;1742693;81;25592;-61
2022/11/24 03:49:24;;;;;;;27.95;12.80;;;;;;;-1.37;90.06;99698.42;1743696;81;25787;-61
2022/11/24 03:51:51;;;;;;;29.25;13.72;;;;;;;-1.36;90.00;99690.75;1744369;81;27230;-59
2022/11/24 03:54:17;;;;;;;25.30;10.93;;;;;;;-1.36;89.97;99684.12;1742670;81;25704;-60
2022/11/24 03:56:44;;;;;;;25.05;11.08;;;;;;;-1.37;89.97;99684.36;1745336;81;25527;-60
2022/11/24 03:59:10;;;;;;;27.73;11.15;;;;;;;-1.36;89.98;99684.66;1744831;81;25836;-60
2022/11/24 04:01:36;;;;;;;28.73;11.40;;;;;;;-1.37;89.98;99685.69;1738314;81;25797;-60
2022/11/24 04:04:02;;;;;;;22.30;9.60;;;;;;;-1.37;89.95;99698.42;1741656;81;27381;-60
2022/11/24 04:06:29;;;;;;;25.02;10.78;;;;;;;-1.36;89.89;99696.06;1742895;81;25546;-60
2022/11/24 04:08:58;;;;;;;19.73;9.80;;;;;;;-1.38;89.87;99696.02;1747508;81;25821;-60
2022/11/24 04:14:11;;;;;;;29.30;12.65;;;;;;;-1.38;89.92;99692.86;1744085;81;25397;-61
2022/11/24 04:16:38;;;;;;;28.45;13.48;;;;;;;-1.36;89.99;99684.12;1745574;81;27309;-60
2022/11/24 04:19:06;;;;;;;33.40;14.15;;;;;;;-1.35;89.96;99684.92;1742369;81;25904;-61
2022/11/24 04:21:33;;;;;;;26.80;10.93;;;;;;;-1.36;89.97;99687.31;1744612;81;25779;-61
2022/11/24 04:23:59;;;;;;;26.52;11.97;;;;;;;-1.37;89.92;99691.79;1743579;81;25588;-60
2022/11/24 04:26:27;;;;;;;25.85;10.90;;;;;;;-1.35;89.93;99699.51;1741070;81;25629;-61
2022/11/24 04:28:53;;;;;;;28.10;11.20;;;;;;;-1.37;89.97;99695.77;1744355;81;27381;-62
2022/11/24 04:31:21;;;;;;;21.50;9.78;;;;;;;-1.36;89.93;99699.25;1738679;81;25382;-61
2022/11/24 04:33:47;;;;;;;23.77;9.80;;;;;;;-1.37;89.91;99691.79;1736214;81;25524;-62
2022/11/24 04:36:13;;;;;;;23.67;10.43;;;;;;;-1.35;89.95;99699.51;1738557;81;26199;-62
2022/11/24 04:38:40;;;;;;;23.35;9.83;;;;;;;-1.35;89.94;99700.30;1746551;81;25860;-61
2022/11/24 04:41:09;;;;;;;25.25;10.03;;;;;;;-1.34;89.94;99701.13;1741754;81;27262;-61
2022/11/24 04:43:35;;;;;;;25.20;10.55;;;;;;;-1.34;90.01;99702.45;1741786;81;25779;-61
2022/11/24 04:46:03;;;;;;;20.40;9.58;;;;;;;-1.35;90.05;99708.27;1737043;81;25877;-61
2022/11/24 04:48:29;;;;;;;23.60;10.53;;;;;;;-1.34;90.08;99706.44;1745189;81;25815;-61
2022/11/24 04:50:56;;;;;;;21.07;9.48;;;;;;;-1.34;90.02;99708.55;1744040;81;25590;-61
2022/11/24 04:53:22;;;;;;;20.82;9.68;;;;;;;-1.35;89.91;99706.14;1720798;81;27319;-59
2022/11/24 04:55:50;;;;;;;23.47;10.15;;;;;;;-1.34;89.93;99701.13;1703447;82;26351;-61
2022/11/24 04:58:16;;;;;;;20.02;10.13;;;;;;;-1.34;89.93;99704.58;1716967;81;25441;-60
2022/11/24 05:00:42;;;;;;;26.27;10.15;;;;;;;-1.34;89.89;99707.76;1713582;81;26327;-61
2022/11/24 05:03:09;;;;;;;22.70;10.58;;;;;;;-1.34;89.92;99715.19;1710064;81;25851;-61
2022/11/24 05:05:35;;;;;;;21.80;9.78;;;;;;;-1.33;89.95;99719.97;1718779;81;28077;-61
2022/11/24 05:08:02;;;;;;;25.27;11.08;;;;;;;-1.34;89.94;99714.39;1744026;80;25422;-60
2022/11/24 05:10:34;;;;;;;21.23;9.95;;;;;;;-1.34;89.89;99711.20;1749059;80;25916;-62
2022/11/24 05:13:07;;;;;;;19.70;9.90;;;;;;;-1.35;89.89;99714.89;1724340;80;25654;-62
2022/11/24 05:15:39;;;;;;;20.35;9.23;;;;;;;-1.34;89.84;99720.50;1734561;81;25826;-62
2022/11/24 05:18:11;;;;;;;22.20;8.73;;;;;;;-1.34;89.82;99729.78;1723813;81;27358;-61
2022/11/24 05:20:39;;;;;;;21.45;8.93;;;;;;;-1.33;89.85;99723.94;1732324;81;25767;-61
2022/11/24 05:23:07;;;;;;;24.55;8.88;;;;;;;-1.33;89.86;99718.64;1748379;81;25859;-61
2022/11/24 05:25:36;;;;;;;22.50;10.08;;;;;;;-1.32;89.90;99717.60;1726830;81;25400;-62
2022/11/24 05:28:10;;;;;;;20.40;9.63;;;;;;;-1.34;89.88;99717.84;1735985;81;25788;-62
2022/11/24 05:30:39;;;;;;;20.77;8.33;;;;;;;-1.34;89.88;99717.05;1716650;81;28082;-62
2022/11/24 05:33:15;;;;;;;22.27;9.05;;;;;;;-1.33;89.93;99723.44;1720664;81;25517;-62
2022/11/24 05:35:42;;;;;;;23.47;9.70;;;;;;;-1.34;89.94;99728.45;1728867;81;25801;-62
2022/11/24 05:38:08;;;;;;;19.80;9.53;;;;;;;-1.33;89.91;99725.27;1745587;81;25670;-62
2022/11/24 05:40:38;;;;;;;18.77;8.58;;;;;;;-1.34;89.89;99727.13;1716237;81;25871;-62
2022/11/24 05:43:10;;;;;;;25.00;9.93;;;;;;;-1.33;89.91;99729.25;1709942;81;27367;-61
2022/11/24 05:45:39;;;;;;;20.45;8.95;;;;;;;-1.35;89.94;99730.81;1713591;81;25746;-62
2022/11/24 05:48:12;;;;;;;20.30;8.48;;;;;;;-1.33;90.01;99733.23;1711045;81;25799;-62
2022/11/24 05:50:40;;;;;;;20.23;8.95;;;;;;;-1.34;90.01;99728.98;1715644;81;27835;-62
2022/11/24 05:53:12;;;;;;;20.62;9.30;;;;;;;-1.34;90.07;99743.58;1687802;82;25895;-62
2022/11/24 05:55:42;;;;;;;21.80;9.23;;;;;;;-1.34;90.08;99740.92;1716606;81;27113;-62
2022/11/24 05:58:10;;;;;;;21.55;8.78;;;;;;;-1.34;90.06;99741.72;1711863;81;25708;-61
2022/11/24 06:00:38;;;;;;;25.97;9.78;;;;;;;-1.33;90.05;99747.82;1713859;81;25493;-61
2022/11/24 06:03:06;;;;;;;20.08;9.25;;;;;;;-1.34;90.18;99750.22;1732832;81;26450;-61
2022/11/24 06:05:32;;;;;;;21.10;9.28;;;;;;;-1.33;90.21;99755.28;1707916;81;25852;-62
2022/11/24 06:07:59;;;;;;;19.45;8.60;;;;;;;-1.33;90.21;99759.77;1712353;81;27421;-61
2022/11/24 06:10:28;;;;;;;19.70;9.78;;;;;;;-1.31;90.22;99760.34;1717942;81;25410;-61
2022/11/24 06:12:56;;;;;;;23.65;11.93;;;;;;;-1.31;90.23;99764.33;1715993;81;26308;-61
2022/11/24 06:15:23;;;;;;;26.40;11.75;;;;;;;-1.30;90.25;99759.28;1728214;81;25753;-62
2022/11/24 06:17:55;;;;;;;28.47;12.07;;;;;;;-1.28;90.22;99759.05;1734365;81;25624;-61
2022/11/24 06:20:24;;;;;;;27.25;12.33;;;;;;;-1.29;90.23;99762.23;1725947;81;27400;-61
2022/11/24 06:22:50;;;;;;;22.45;8.93;;;;;;;-1.30;90.13;99756.63;1722889;81;25564;-61
2022/11/24 06:25:17;;;;;;;25.02;10.20;;;;;;;-1.29;90.16;99757.42;1717977;81;25484;-61
2022/11/24 06:27:44;;;;;;;21.20;9.50;;;;;;;-1.28;90.25;99753.73;1723630;80;25841;-59
2022/11/24 06:30:14;;;;;;;17.73;8.63;;;;;;;-1.28;90.27;99761.70;1716510;81;25520;-60
2022/11/24 06:32:43;;;;;;;36.63;17.00;;;;;;;-1.26;90.31;99767.05;1744213;81;27302;-60
2022/11/24 06:35:12;;;;;;;;;;;;;;;-1.26;90.32;99768.38;1745333;81;25814;-72
2022/11/24 06:37:39;;;;;;;30.82;14.63;;;;;;;-1.24;90.30;99765.46;1733929;81;25809;-64
2022/11/24 06:40:09;;;;;;;25.25;10.32;;;;;;;-1.27;90.27;99761.45;1726264;82;26585;-63
2022/11/24 06:42:37;;;;;;;22.90;10.25;;;;;;;-1.26;90.28;99769.70;1731020;80;25789;-64
2022/11/24 06:45:08;;;;;;;24.60;10.60;;;;;;;-1.27;90.25;99770.75;1741866;81;26948;-60
2022/11/24 06:47:34;;;;;;;23.18;10.40;;;;;;;-1.24;90.43;99774.24;1733964;81;26300;-60
2022/11/24 06:50:00;;;;;;;22.02;9.48;;;;;;;-1.22;90.49;99779.31;1758228;80;25682;-60
2022/11/24 06:52:28;;;;;;;25.08;10.40;;;;;;;-1.22;90.48;99780.11;1736567;81;25763;-60
2022/11/24 06:54:54;;;;;;;25.77;10.80;;;;;;;-1.20;90.46;99778.54;1731219;81;25582;-59
2022/11/24 06:57:22;;;;;;;24.40;9.88;;;;;;;-1.18;90.44;99781.75;1717466;81;27312;-61
2022/11/24 06:59:50;;;;;;;28.55;11.45;;;;;;;-1.18;90.48;99785.73;1725368;81;25830;-60
2022/11/24 07:02:16;;;;;;;25.15;10.38;;;;;;;-1.17;90.57;99784.70;1723335;80;25474;-60
2022/11/24 07:04:42;;;;;;;29.45;11.95;;;;;;;-1.16;90.50;99781.80;1730518;81;25608;-60
2022/11/24 07:07:08;;;;;;;23.15;10.23;;;;;;;-1.13;90.47;99787.92;1713289;81;25865;-60
2022/11/24 07:09:34;;;;;;;27.10;10.93;;;;;;;-1.11;90.50;99792.20;1725766;81;27444;-59
2022/11/24 07:12:01;;;;;;;22.45;10.38;;;;;;;-1.11;90.54;99782.38;1727926;81;25678;-60
2022/11/24 07:14:28;;;;;;;31.62;12.65;;;;;;;-1.07;90.50;99786.66;1724494;81;25395;-59
2022/11/24 07:16:54;;;;;;;37.90;14.25;;;;;;;-1.07;90.55;99785.34;1731393;81;25782;-60
2022/11/24 07:19:21;;;;;;;27.40;10.95;;;;;;;-1.05;90.50;99788.05;1722058;81;25839;-59
2022/11/24 07:21:47;;;;;;;29.48;11.73;;;;;;;-1.03;90.42;99793.11;1720849;82;27293;-58
2022/11/24 07:24:13;;;;;;;24.07;10.25;;;;;;;-1.04;90.34;99790.16;1718772;81;25745;-61
2022/11/24 07:26:39;;;;;;;30.17;11.10;;;;;;;-1.03;90.32;99793.91;1723675;81;25751;-61
2022/11/24 07:29:06;;;;;;;27.20;11.33;;;;;;;-1.02;90.25;99790.72;1682613;81;25883;-62
2022/11/24 07:31:32;;;;;;;27.93;11.22;;;;;;;-1.01;90.33;99795.00;1714750;81;25459;-61
2022/11/24 07:33:58;;;;;;;30.40;12.50;;;;;;;-1.00;90.36;99793.95;1712252;81;27344;-60
2022/11/24 07:36:24;;;;;;;28.05;11.88;;;;;;;-0.99;90.29;99796.38;1715794;82;25871;-61
2022/11/24 07:38:51;;;;;;;27.62;11.30;;;;;;;-0.99;90.25;99799.03;1717833;82;25823;-61
2022/11/24 07:41:19;;;;;;;27.62;12.37;;;;;;;-0.98;90.20;99801.15;1726540;81;25776;-62
2022/11/24 07:43:46;;;;;;;26.93;11.75;;;;;;;-0.97;90.27;99794.77;1731640;81;25798;-62
2022/11/24 07:46:16;;;;;;;23.83;11.30;;;;;;;-0.95;90.20;99799.34;1728750;81;27946;-62
2022/11/24 07:48:42;;;;;;;26.52;11.55;;;;;;;-0.95;90.18;99797.48;1714746;81;25557;-62
2022/11/24 07:51:09;;;;;;;25.10;11.33;;;;;;;-0.93;90.21;99796.44;1732045;81;25798;-61
2022/11/24 07:53:37;;;;;;;25.45;10.18;;;;;;;-0.92;90.28;99794.84;1740728;81;25794;-61
2022/11/24 07:56:05;;;;;;;26.30;11.55;;;;;;;-0.89;90.50;99790.91;1712154;81;25665;-61
2022/11/24 07:58:35;;;;;;;18.63;8.57;;;;;;;-0.86;90.57;99797.06;1729896;82;28008;-61
2022/11/24 08:01:15;;;;;;;30.12;11.28;;;;;;;-0.85;90.47;99796.82;1734832;81;25770;-60
2022/11/24 08:03:42;;;;;;;26.00;12.45;;;;;;;-0.83;90.41;99806.66;1733026;81;25755;-61
2022/11/24 08:06:10;;;;;;;25.45;11.55;;;;;;;-0.79;90.31;99806.98;1735568;81;25868;-62
2022/11/24 08:08:36;;;;;;;26.12;11.40;;;;;;;-0.80;90.15;99806.19;1722749;82;25381;-61
2022/11/24 08:11:06;;;;;;;29.92;11.65;;;;;;;-0.79;90.05;99809.09;1737813;82;28109;-60
2022/11/24 08:13:34;;;;;;;25.75;10.95;;;;;;;-0.78;90.17;99808.59;1723801;81;25815;-61
2022/11/24 08:16:06;;;;;;;23.62;10.85;;;;;;;-0.76;90.06;99809.15;1719871;81;25687;-62
2022/11/24 08:18:34;;;;;;;22.48;10.48;;;;;;;-0.74;90.12;99804.92;1735155;81;25650;-62
2022/11/24 08:21:02;;;;;;;25.30;11.22;;;;;;;-0.71;90.06;99813.73;1700805;81;25518;-60
2022/11/24 08:23:29;;;;;;;24.72;10.35;;;;;;;-0.71;89.98;99805.23;1756312;81;27333;-61
2022/11/24 08:26:03;;;;;;;22.85;10.20;;;;;;;-0.72;90.00;99808.92;1735927;81;25829;-59
2022/11/24 08:28:25;;;;;;;27.55;12.05;;;;;;;-0.68;90.06;99813.22;1735162;81;25742;-61
2022/11/24 08:30:51;;;;;;;23.35;10.85;;;;;;;-0.69;89.81;99807.11;1730492;81;25734;-61
2022/11/24 08:33:18;;;;;;;25.10;11.65;;;;;;;-0.65;89.87;99816.72;1725115;81;25865;-61
2022/11/24 08:35:44;;;;;;;27.95;12.05;;;;;;;-0.64;90.05;99814.35;1712421;81;27267;-61
2022/11/24 08:38:10;;;;;;;22.70;9.75;;;;;;;-0.64;89.83;99819.13;1729931;81;25451;-61
2022/11/24 08:40:36;;;;;;;22.67;10.80;;;;;;;-0.61;89.95;99818.64;1733383;81;25398;-59
2022/11/24 08:43:02;;;;;;;27.90;12.63;;;;;;;-0.60;89.89;99814.92;1725361;82;26142;-60
2022/11/24 08:45:28;;;;;;;25.60;11.73;;;;;;;-0.60;89.67;99822.89;1726059;82;25823;-58
2022/11/24 08:47:56;;;;;;;25.80;11.08;;;;;;;-0.57;89.88;99821.61;1746078;81;27327;-60
2022/11/24 08:50:24;;;;;;;27.98;12.10;;;;;;;-0.57;89.72;99815.76;1742875;81;25526;-59
2022/11/24 08:52:52;;;;;;;25.40;11.53;;;;;;;-0.55;89.84;99813.39;1721404;81;25525;-60
2022/11/24 08:55:19;;;;;;;27.05;12.50;;;;;;;-0.51;89.83;99821.14;1738031;81;25712;-57
2022/11/24 08:57:46;;;;;;;24.45;10.45;;;;;;;-0.50;89.85;99825.41;1729420;81;25381;-60
2022/11/24 09:00:20;;;;;;;22.48;9.48;;;;;;;-0.47;89.90;99828.91;1744454;81;27713;-60
2022/11/24 09:02:42;;;;;;;26.95;10.80;;;;;;;-0.44;89.76;99829.75;1721017;81;27350;-59
2022/11/24 09:05:08;;;;;;;25.82;11.20;;;;;;;-0.43;89.63;99830.01;1731187;81;25504;-58
2022/11/24 09:07:35;;;;;;;24.92;10.60;;;;;;;-0.40;89.75;99830.31;1731134;81;25949;-59
2022/11/24 09:10:01;;;;;;;23.47;10.58;;;;;;;-0.38;89.91;99830.86;1736289;81;25691;-59
2022/11/24 09:12:27;;;;;;;25.82;11.25;;;;;;;-0.33;89.92;99837.31;1739588;81;27367;-59
2022/11/24 09:14:53;;;;;;;23.57;10.00;;;;;;;-0.31;89.85;99832.55;1739157;80;25472;-58
2022/11/24 09:17:19;;;;;;;19.52;9.88;;;;;;;-0.27;89.98;99830.48;1725801;80;25858;-59
2022/11/24 09:19:46;;;;;;;20.52;9.88;;;;;;;-0.23;89.98;99834.77;1724695;81;25594;-59
2022/11/24 09:22:12;;;;;;;23.60;10.03;;;;;;;-0.21;89.78;99832.13;1737248;81;25420;-59
2022/11/24 09:24:38;;;;;;;23.02;10.28;;;;;;;-0.18;89.79;99840.14;1725122;81;29611;-60
2022/11/24 09:27:04;;;;;;;25.35;11.35;;;;;;;-0.16;89.69;99838.03;1727297;81;25797;-58
2022/11/24 09:29:30;;;;;;;27.40;11.75;;;;;;;-0.15;89.56;99840.98;1745336;81;25744;-61
2022/11/24 09:31:56;;;;;;;25.60;11.15;;;;;;;-0.12;89.59;99844.98;1720031;81;25733;-61
2022/11/24 09:34:23;;;;;;;26.15;11.08;;;;;;;-0.07;89.70;99849.03;1735175;81;25485;-60
2022/11/24 09:36:50;;;;;;;26.12;12.25;;;;;;;-0.07;89.34;99849.85;1727450;81;27311;-60
2022/11/24 09:39:16;;;;;;;22.93;10.93;;;;;;;-0.05;89.28;99857.05;1746169;81;25831;-58
2022/11/24 09:42:11;;;;;;;20.45;10.18;;;;;;;-0.03;89.47;99858.13;1714524;81;25419;-59
2022/11/24 09:45:05;;;;;;;24.23;11.80;;;;;;;-0.01;89.33;99858.68;1730578;81;27873;-60
2022/11/24 09:47:52;;;;;;;25.37;11.80;;;;;;;0.01;89.22;99861.89;1714031;82;25886;-59
2022/11/24 09:50:24;;;;;;;26.20;11.08;;;;;;;0.00;88.90;99864.29;1725452;81;28448;-59
2022/11/24 09:53:20;;;;;;;24.00;10.58;;;;;;;-0.04;88.48;99870.60;1730911;81;25874;-59
2022/11/24 09:55:52;;;;;;;23.80;11.18;;;;;;;-0.07;88.51;99874.29;1683517;84;25926;-60
2022/11/24 09:58:58;;;;;;;27.15;11.75;;;;;;;-0.06;88.71;99870.05;1666282;84;25733;-61
2022/11/24 10:01:35;;;;;;;20.80;9.35;;;;;;;-0.09;88.56;99870.55;1682302;83;25931;-60
2022/11/24 10:04:03;;;;;;;22.52;10.18;;;;;;;-0.09;88.68;99873.20;1692388;83;27323;-60
2022/11/24 10:06:55;;;;;;;21.40;10.60;;;;;;;-0.07;88.75;99869.80;1660130;85;25911;-60
2022/11/24 10:10:04;;;;;;;26.90;10.85;;;;;;;-0.04;89.02;99869.27;1675528;84;25904;-58
2022/11/24 10:12:49;;;;;;;;;;;;;;;-0.01;89.05;99867.98;1663704;84;25860;-59
2022/11/24 10:15:41;;;;;;;20.55;9.83;;;;;;;0.02;88.70;99870.66;1664364;84;25831;-59
2022/11/24 10:18:41;;;;;;;22.32;10.05;;;;;;;0.01;88.77;99861.09;1679997;84;28266;-59
2022/11/24 10:21:36;;;;;;;24.80;10.60;;;;;;;0.05;88.80;99862.19;1687045;84;25950;-58
2022/11/24 10:24:17;;;;;;;25.68;10.70;;;;;;;0.06;88.67;99862.48;1681934;84;25688;-58
2022/11/24 10:26:51;;;;;;;21.87;10.18;;;;;;;0.06;88.83;99856.63;1673281;84;25760;-58
2022/11/24 10:29:31;;;;;;;26.95;11.73;;;;;;;0.10;88.74;99857.75;1663202;84;25990;-61
2022/11/24 10:31:57;;;;;;;25.55;10.95;;;;;;;0.07;88.33;99859.57;1696663;81;27237;-56
2022/11/24 10:34:34;;;;;;;23.62;11.45;;;;;;;0.08;88.52;99860.37;1735781;82;25803;-60
2022/11/24 10:37:06;;;;;;;28.57;12.73;;;;;;;0.10;88.52;99869.72;1723510;81;25815;-58
2022/11/24 10:40:20;;;;;;;24.63;11.48;;;;;;;0.15;88.68;99859.64;1737347;81;25652;-59
2022/11/24 10:42:47;;;;;;;26.85;11.18;;;;;;;0.16;88.54;99854.61;1730091;81;25385;-57
2022/11/24 10:45:21;;;;;;;24.52;12.40;;;;;;;0.19;88.61;99854.11;1739417;81;27017;-59
2022/11/24 10:47:48;;;;;;;26.40;12.93;;;;;;;0.23;88.65;99855.20;1711774;81;25697;-59
2022/11/24 10:50:37;;;;;;;27.10;10.90;;;;;;;0.26;88.62;99855.24;1727708;81;25850;-59
2022/11/24 10:53:27;;;;;;;23.83;11.30;;;;;;;0.28;88.36;99856.59;1721822;81;25780;-59
2022/11/24 10:56:00;;;;;;;25.25;11.00;;;;;;;0.30;88.26;99859.00;1739335;81;25826;-59
2022/11/24 10:58:36;;;;;;;25.40;10.95;;;;;;;0.31;88.17;99857.42;1713778;81;27325;-59
2022/11/24 11:01:18;;;;;;;29.98;12.28;;;;;;;0.34;88.38;99859.58;1732934;81;25727;-60
2022/11/24 11:03:57;;;;;;;26.93;11.90;;;;;;;0.37;88.23;99859.59;1725736;81;25759;-60
2022/11/24 11:06:30;;;;;;;25.17;11.28;;;;;;;0.38;87.93;99865.20;1742636;81;26247;-59
2022/11/24 11:09:11;;;;;;;19.50;9.75;;;;;;;0.38;87.90;99859.88;1738744;81;25551;-58
2022/11/24 11:11:38;;;;;;;24.32;11.18;;;;;;;0.39;87.79;99860.14;1723912;81;27643;-59
2022/11/24 11:14:11;;;;;;;26.00;11.18;;;;;;;0.41;87.76;99861.22;1743029;81;25870;-58
2022/11/24 11:16:53;;;;;;;25.70;10.88;;;;;;;0.42;87.79;99867.62;1720415;81;25524;-58
2022/11/24 11:19:45;;;;;;;27.27;11.60;;;;;;;0.43;87.61;99867.91;1737905;80;25953;-59
2022/11/24 11:22:29;;;;;;;23.20;11.15;;;;;;;0.45;87.63;99867.66;1725674;81;25383;-60
2022/11/24 11:25:13;;;;;;;25.32;11.10;;;;;;;0.43;87.29;99867.91;1725310;80;28329;-58
2022/11/24 11:27:41;;;;;;;23.40;10.45;;;;;;;0.41;87.15;99862.04;1734663;80;25668;-58
2022/11/24 11:30:25;;;;;;;20.88;10.25;;;;;;;0.39;87.20;99859.34;1746537;81;25457;-58
2022/11/24 11:32:56;;;;;;;23.52;10.30;;;;;;;0.41;87.39;99859.38;1748728;81;26270;-58
2022/11/24 11:35:31;;;;;;;30.68;12.18;;;;;;;0.44;87.63;99866.05;1725042;82;25635;-58
2022/11/24 11:38:05;;;;;;;25.30;11.50;;;;;;;0.44;87.35;99866.84;1729452;81;27348;-58